Time;durP1;ratioP1;P1;durP2;ratioP2;P2;SDS_P1;SDS_P2;PMS_P1;PMS_P2;Temp;Humidity;BMP_temperature;BMP_pressure;BME280_temperature;BME280_humidity;BME280_pressure;Samples;Min_cycle;Max_cycle;Signal;HPM_P1;HPM_P2
2022/01/11 00:25:40;;;;;;;26.48;13.63;;;5.00;99.90;;;;;;5002270;23;20238;-88
2022/01/11 00:28:09;;;;;;;23.05;13.63;;;4.80;99.90;;;;;;4991060;28;20329;-88
2022/01/11 00:30:39;;;;;;;23.73;14.85;;;4.80;99.90;;;;;;4985396;28;20627;-89
2022/01/11 00:33:11;;;;;;;26.63;15.90;;;4.80;99.90;;;;;;4984387;28;20230;-88
2022/01/11 00:35:43;;;;;;;27.33;14.40;;;5.20;99.90;;;;;;4966112;29;20207;-89
2022/01/11 00:38:15;;;;;;;25.73;14.05;;;5.00;99.90;;;;;;4964396;29;20230;-88
2022/01/11 00:40:46;;;;;;;22.35;14.52;;;4.80;99.90;;;;;;4977767;28;20199;-88
2022/01/11 00:43:13;;;;;;;25.35;15.30;;;4.70;99.90;;;;;;4967528;29;20216;-88
2022/01/11 00:45:40;;;;;;;24.70;15.38;;;4.20;99.90;;;;;;4964890;29;20736;-88
2022/01/11 00:48:07;;;;;;;24.23;13.98;;;4.40;99.90;;;;;;4964067;29;20214;-88
2022/01/11 00:50:36;;;;;;;29.08;15.77;;;5.00;99.90;;;;;;4964508;29;20206;-88
2022/01/11 00:53:03;;;;;;;27.55;15.13;;;5.10;99.90;;;;;;4966021;28;20215;-88
2022/01/11 00:55:31;;;;;;;23.45;15.10;;;4.90;99.90;;;;;;4967315;29;20659;-88
2022/01/11 00:57:59;;;;;;;22.33;14.00;;;4.50;99.90;;;;;;4974954;29;20210;-88
2022/01/11 01:00:26;;;;;;;22.27;14.20;;;4.50;99.90;;;;;;4977389;29;20234;-88
2022/01/11 01:02:53;;;;;;;23.52;15.13;;;5.10;99.90;;;;;;4971528;29;20590;-88
2022/01/11 01:05:21;;;;;;;24.65;14.70;;;4.70;99.90;;;;;;4975509;29;20234;-88
2022/01/11 01:07:48;;;;;;;25.60;15.25;;;5.00;99.90;;;;;;4976239;29;20579;-88
2022/01/11 01:10:25;;;;;;;26.60;15.10;;;4.90;99.90;;;;;;4967288;29;20314;-88
2022/01/11 01:12:52;;;;;;;22.15;14.43;;;4.70;99.90;;;;;;4967765;29;20604;-88
2022/01/11 01:15:21;;;;;;;25.80;15.60;;;4.40;99.90;;;;;;4966228;29;20233;-88
2022/01/11 01:17:48;;;;;;;26.35;15.85;;;4.70;99.90;;;;;;4966395;29;20285;-88
2022/01/11 01:20:15;;;;;;;38.13;17.83;;;4.70;99.90;;;;;;4966581;29;20342;-88
2022/01/11 01:22:42;;;;;;;21.83;14.30;;;5.00;99.90;;;;;;4965778;29;20211;-89
2022/01/11 01:25:11;;;;;;;25.08;15.05;;;4.80;99.90;;;;;;4966949;29;20234;-88
2022/01/11 01:27:38;;;;;;;32.58;16.00;;;4.70;99.90;;;;;;4965556;29;20217;-88
2022/01/11 01:30:07;;;;;;;23.50;14.63;;;5.00;99.90;;;;;;4965600;29;20208;-88
2022/01/11 01:32:35;;;;;;;23.42;14.13;;;5.00;99.90;;;;;;4967517;29;20281;-88
2022/01/11 01:35:05;;;;;;;23.38;14.20;;;5.30;99.90;;;;;;4967352;29;20264;-88
2022/01/11 01:37:32;;;;;;;22.48;15.13;;;5.00;99.90;;;;;;4967574;29;20208;-88
2022/01/11 01:39:59;;;;;;;24.52;14.88;;;4.60;99.90;;;;;;4967030;29;20222;-88
2022/01/11 01:42:29;;;;;;;22.88;15.57;;;5.00;99.90;;;;;;4979104;29;20216;-89
2022/01/11 01:44:59;;;;;;;26.02;14.02;;;4.50;99.90;;;;;;4969576;29;20238;-88
2022/01/11 01:47:26;;;;;;;25.65;14.32;;;5.00;99.90;;;;;;4970736;29;20225;-88
2022/01/11 01:49:55;;;;;;;30.27;14.35;;;4.80;99.90;;;;;;4964495;29;20218;-88
2022/01/11 01:52:23;;;;;;;26.33;16.23;;;4.90;99.90;;;;;;4971380;29;20235;-89
2022/01/11 01:54:51;;;;;;;30.38;19.27;;;4.90;99.90;;;;;;4963783;29;20270;-88
2022/01/11 01:57:18;;;;;;;27.52;16.15;;;4.70;99.90;;;;;;4963889;29;20694;-89
2022/01/11 01:59:45;;;;;;;30.60;20.42;;;5.20;99.90;;;;;;4964574;29;20240;-87
2022/01/11 02:02:14;;;;;;;36.75;18.40;;;4.80;99.90;;;;;;4964189;29;20585;-88
2022/01/11 02:04:41;;;;;;;35.67;20.98;;;4.50;99.90;;;;;;4966737;28;20684;-89
2022/01/11 02:07:10;;;;;;;30.88;21.20;;;4.70;99.90;;;;;;4965630;29;20274;-89
2022/01/11 02:09:36;;;;;;;33.95;21.08;;;4.50;99.90;;;;;;4966626;29;20228;-88
2022/01/11 02:12:04;;;;;;;30.35;19.55;;;4.70;99.90;;;;;;4969026;29;20240;-89
2022/01/11 02:14:31;;;;;;;29.08;19.38;;;4.80;99.90;;;;;;4970327;29;20231;-89
2022/01/11 02:17:00;;;;;;;43.38;23.10;;;4.80;99.90;;;;;;4972121;29;20215;-89
2022/01/11 02:19:27;;;;;;;38.80;19.85;;;4.30;99.90;;;;;;4967998;29;20726;-89
2022/01/11 02:21:56;;;;;;;27.80;17.30;;;4.60;99.90;;;;;;4967611;29;20227;-89
2022/01/11 02:24:23;;;;;;;31.20;18.75;;;4.60;99.90;;;;;;4966374;29;20736;-89
2022/01/11 02:26:50;;;;;;;26.88;16.10;;;4.80;99.90;;;;;;4971621;29;20244;-89
2022/01/11 02:29:18;;;;;;;31.42;15.85;;;4.50;99.90;;;;;;4969124;29;20199;-89
2022/01/11 02:31:45;;;;;;;26.55;15.00;;;4.90;99.90;;;;;;4971162;28;20210;-89
2022/01/11 02:34:12;;;;;;;32.50;15.18;;;4.80;99.90;;;;;;4976512;28;20222;-89
2022/01/11 02:36:39;;;;;;;21.90;14.40;;;4.40;99.90;;;;;;4963784;29;20266;-89
2022/01/11 02:39:07;;;;;;;29.15;16.13;;;4.60;99.90;;;;;;4964907;29;20207;-89
2022/01/11 02:41:34;;;;;;;28.52;14.00;;;4.80;99.90;;;;;;4967399;29;20262;-89
2022/01/11 02:44:02;;;;;;;25.85;14.10;;;4.50;99.90;;;;;;4964528;29;20226;-89
2022/01/11 02:46:29;;;;;;;27.50;14.70;;;4.50;99.90;;;;;;4965530;29;20212;-88
2022/01/11 02:48:57;;;;;;;27.60;15.07;;;4.90;99.90;;;;;;4973895;28;20219;-88
2022/01/11 02:51:25;;;;;;;26.80;15.45;;;4.80;99.90;;;;;;4980816;28;20211;-88
2022/01/11 02:53:54;;;;;;;25.50;14.68;;;4.80;99.90;;;;;;4976273;29;20294;-89
2022/01/11 02:56:23;;;;;;;27.05;15.60;;;4.80;99.90;;;;;;4976252;28;20192;-88
2022/01/11 02:58:50;;;;;;;25.88;14.55;;;4.90;99.90;;;;;;4979002;28;20210;-89
2022/01/11 03:01:18;;;;;;;22.20;13.50;;;4.90;99.90;;;;;;4976317;28;20204;-89
2022/01/11 03:03:47;;;;;;;25.40;13.40;;;5.10;99.90;;;;;;4971898;29;20227;-88
2022/01/11 03:06:14;;;;;;;27.23;15.35;;;5.00;99.90;;;;;;4966194;29;20221;-89
2022/01/11 03:08:44;;;;;;;27.38;15.35;;;5.20;99.90;;;;;;4965582;29;20211;-89
2022/01/11 03:11:12;;;;;;;27.95;15.07;;;5.00;99.90;;;;;;4965495;29;20219;-89
2022/01/11 03:13:43;;;;;;;25.67;15.98;;;5.10;99.90;;;;;;4965017;29;20289;-89
2022/01/11 03:16:11;;;;;;;22.55;14.90;;;5.10;99.90;;;;;;4969431;28;20204;-88
2022/01/11 03:18:38;;;;;;;22.75;14.10;;;4.80;99.90;;;;;;4971576;29;20251;-89
2022/01/11 03:21:05;;;;;;;27.23;14.68;;;5.10;99.90;;;;;;4969286;29;20217;-89
2022/01/11 03:23:32;;;;;;;24.45;14.93;;;5.00;99.90;;;;;;4964677;29;20236;-89
2022/01/11 03:26:02;;;;;;;19.50;12.70;;;5.20;99.90;;;;;;4963215;29;20264;-89
2022/01/11 03:28:29;;;;;;;30.25;15.07;;;5.10;99.90;;;;;;4969105;29;20209;-89
2022/01/11 03:30:59;;;;;;;27.65;15.10;;;4.80;99.90;;;;;;4973212;29;20219;-89
2022/01/11 03:33:26;;;;;;;23.85;14.38;;;5.10;99.90;;;;;;4974613;29;20219;-89
2022/01/11 03:35:53;;;;;;;23.75;15.13;;;5.10;99.90;;;;;;4973609;29;20280;-89
2022/01/11 03:38:22;;;;;;;22.65;13.70;;;4.60;99.90;;;;;;4966922;29;20283;-88
2022/01/11 03:40:49;;;;;;;22.77;14.65;;;5.10;99.90;;;;;;4966111;29;20209;-88
2022/01/11 03:43:16;;;;;;;20.55;13.35;;;4.60;99.90;;;;;;4963664;29;20242;-88
2022/01/11 03:45:43;;;;;;;26.80;15.82;;;4.60;99.90;;;;;;4963009;29;20262;-89
2022/01/11 03:48:13;;;;;;;28.05;15.75;;;4.50;99.90;;;;;;4962836;29;20251;-89
2022/01/11 03:50:40;;;;;;;28.30;17.13;;;4.80;99.90;;;;;;4964174;29;20630;-89
2022/01/11 03:53:12;;;;;;;27.60;16.10;;;4.90;99.90;;;;;;4964077;29;20218;-89
2022/01/11 03:55:58;;;;;;;24.50;15.50;;;5.00;99.90;;;;;;4963752;29;20199;-88
2022/01/11 03:58:26;;;;;;;20.70;13.45;;;4.80;99.90;;;;;;4963397;29;20200;-89
2022/01/11 04:00:54;;;;;;;23.05;14.90;;;4.90;99.90;;;;;;4962686;29;20211;-89
2022/01/11 04:03:22;;;;;;;22.88;14.25;;;5.30;99.90;;;;;;4962056;29;20305;-88
2022/01/11 04:05:49;;;;;;;25.13;15.18;;;4.80;99.90;;;;;;4963260;29;20246;-88
2022/01/11 04:08:16;;;;;;;29.65;16.15;;;5.10;99.90;;;;;;4962312;29;20723;-88
2022/01/11 04:10:43;;;;;;;25.65;16.17;;;4.90;99.90;;;;;;4963074;29;20206;-88
2022/01/11 04:13:11;;;;;;;29.48;16.42;;;4.80;99.90;;;;;;4962061;29;20241;-89
2022/01/11 04:15:38;;;;;;;30.65;15.63;;;4.90;99.90;;;;;;4962316;29;20207;-88
2022/01/11 04:18:05;;;;;;;25.13;16.42;;;4.90;99.90;;;;;;4962416;29;20590;-88
2022/01/11 04:20:33;;;;;;;30.80;15.88;;;4.90;99.90;;;;;;4961759;29;20217;-89
2022/01/11 04:23:00;;;;;;;30.35;15.60;;;4.90;99.90;;;;;;4962205;29;20275;-89
2022/01/11 04:25:27;;;;;;;32.72;17.20;;;4.80;99.90;;;;;;4962712;29;20341;-88
2022/01/11 04:27:54;;;;;;;32.65;17.00;;;4.30;99.90;;;;;;4965414;28;20229;-89
2022/01/11 04:30:21;;;;;;;34.88;16.80;;;4.70;99.90;;;;;;4973970;29;20206;-88
2022/01/11 04:32:48;;;;;;;30.45;17.02;;;4.70;99.90;;;;;;4968134;29;20206;-88
2022/01/11 04:35:16;;;;;;;26.95;16.15;;;4.80;99.90;;;;;;4965980;29;20227;-88
2022/01/11 04:37:44;;;;;;;29.35;17.60;;;4.80;99.90;;;;;;4967514;29;20264;-88
2022/01/11 04:40:13;;;;;;;30.38;17.92;;;4.70;99.90;;;;;;4966333;29;20219;-88
2022/01/11 04:42:40;;;;;;;35.95;16.10;;;4.70;99.90;;;;;;4966204;29;20212;-88
2022/01/11 04:45:10;;;;;;;27.02;14.98;;;4.90;99.90;;;;;;4976634;29;20249;-89
2022/01/11 04:47:37;;;;;;;28.98;17.40;;;5.10;99.90;;;;;;4974689;29;20203;-89
2022/01/11 04:50:05;;;;;;;29.98;15.77;;;4.90;99.90;;;;;;4975063;28;20194;-88
2022/01/11 04:52:32;;;;;;;30.13;15.55;;;5.50;99.90;;;;;;4983014;28;20184;-88
2022/01/11 04:55:00;;;;;;;31.00;16.25;;;5.10;99.90;;;;;;4983007;28;20252;-88
2022/01/11 04:57:27;;;;;;;25.00;16.10;;;4.70;99.90;;;;;;4982906;28;20191;-88
2022/01/11 04:59:54;;;;;;;28.48;18.08;;;4.60;99.90;;;;;;4982431;28;20215;-88
2022/01/11 05:02:21;;;;;;;23.17;15.15;;;4.90;99.90;;;;;;4979440;28;20208;-88
2022/01/11 05:04:48;;;;;;;29.38;17.25;;;4.70;99.90;;;;;;4978129;28;20318;-88
2022/01/11 05:07:15;;;;;;;28.58;15.27;;;4.80;99.90;;;;;;4979549;28;20206;-89
2022/01/11 05:09:41;;;;;;;26.20;15.73;;;4.90;99.90;;;;;;4979816;28;20234;-88
2022/01/11 05:12:11;;;;;;;32.15;17.23;;;5.10;99.90;;;;;;4968957;29;20307;-88
2022/01/11 05:14:38;;;;;;;28.95;18.20;;;4.90;99.90;;;;;;4969350;29;20318;-88
2022/01/11 05:17:06;;;;;;;34.33;20.25;;;5.00;99.90;;;;;;4967520;29;20240;-88
2022/01/11 05:19:34;;;;;;;30.92;18.45;;;4.90;99.90;;;;;;4966584;29;20220;-89
2022/01/11 05:22:01;;;;;;;30.38;19.35;;;4.80;99.90;;;;;;4968172;29;20280;-89
2022/01/11 05:24:28;;;;;;;33.33;18.73;;;5.00;99.90;;;;;;4974497;29;20744;-89
2022/01/11 05:26:54;;;;;;;30.70;18.48;;;5.00;99.90;;;;;;4969917;29;20215;-89
2022/01/11 05:29:23;;;;;;;31.83;19.95;;;4.90;99.90;;;;;;4981847;29;20531;-89
2022/01/11 05:31:50;;;;;;;36.15;21.10;;;4.80;99.90;;;;;;4969938;29;20605;-89
2022/01/11 05:34:17;;;;;;;37.22;19.83;;;5.50;99.90;;;;;;4966964;29;20235;-89
2022/01/11 05:36:44;;;;;;;31.65;20.48;;;4.70;99.90;;;;;;4967228;29;20215;-88
2022/01/11 05:39:11;;;;;;;32.35;20.73;;;5.10;99.90;;;;;;4971445;28;20225;-88
2022/01/11 05:41:38;;;;;;;35.85;19.67;;;4.70;99.90;;;;;;4982103;28;20211;-88
2022/01/11 05:44:05;;;;;;;42.88;22.58;;;5.30;99.90;;;;;;4981942;28;20220;-86
2022/01/11 05:46:33;;;;;;;36.58;19.50;;;5.00;99.90;;;;;;4973788;28;20224;-88
2022/01/11 05:49:00;;;;;;;35.00;19.90;;;4.90;99.90;;;;;;4981409;28;20247;-89
2022/01/11 05:51:28;;;;;;;32.85;20.50;;;5.10;99.90;;;;;;4975206;29;20219;-89
2022/01/11 05:53:55;;;;;;;36.83;20.67;;;4.70;99.90;;;;;;4970363;29;20223;-89
2022/01/11 05:56:22;;;;;;;34.75;21.17;;;4.90;99.90;;;;;;4967608;29;20209;-89
2022/01/11 05:58:53;;;;;;;40.30;20.27;;;4.90;99.90;;;;;;4966264;29;20248;-89
2022/01/11 06:01:20;;;;;;;37.65;21.75;;;4.80;99.90;;;;;;4964958;29;20253;-89
2022/01/11 06:03:48;;;;;;;30.60;19.58;;;4.90;99.90;;;;;;4965532;29;20245;-89
2022/01/11 06:06:15;;;;;;;35.90;19.80;;;4.50;99.90;;;;;;4966354;29;20226;-89
2022/01/11 06:08:42;;;;;;;34.15;20.65;;;4.60;99.90;;;;;;4965435;29;20243;-89
2022/01/11 06:11:11;;;;;;;35.72;21.83;;;4.60;99.90;;;;;;4966489;29;20217;-90
2022/01/11 06:13:38;;;;;;;33.55;21.08;;;4.20;99.90;;;;;;4966638;29;20235;-89
2022/01/11 06:16:07;;;;;;;31.80;20.15;;;4.90;99.90;;;;;;4964629;29;20237;-89
2022/01/11 06:18:34;;;;;;;28.60;19.85;;;5.00;99.90;;;;;;4964744;29;20237;-89
2022/01/11 06:21:03;;;;;;;37.80;20.98;;;5.00;99.90;;;;;;4963476;29;20273;-89
2022/01/11 06:26:07;;;;;;;37.63;21.08;;;4.70;99.90;;;;;;4981175;28;20695;-87
2022/01/11 06:28:34;;;;;;;34.42;20.10;;;4.80;99.90;;;;;;4985441;28;20223;-86
2022/01/11 06:31:01;;;;;;;34.53;19.85;;;4.60;99.90;;;;;;4989617;28;20228;-86
2022/01/11 06:33:28;;;;;;;34.67;20.42;;;4.40;99.90;;;;;;4996768;28;20234;-87
2022/01/11 06:35:55;;;;;;;39.45;21.58;;;4.60;99.90;;;;;;4975023;29;20285;-88
2022/01/11 06:38:23;;;;;;;32.60;21.20;;;4.20;99.90;;;;;;4963096;29;20219;-88
2022/01/11 06:40:50;;;;;;;36.20;21.48;;;4.60;99.90;;;;;;4973415;29;20213;-87
2022/01/11 06:43:17;;;;;;;34.30;22.20;;;4.70;99.90;;;;;;4968061;29;20248;-86
2022/01/11 06:45:44;;;;;;;36.83;20.45;;;4.60;99.90;;;;;;4966271;29;20258;-87
2022/01/11 06:48:12;;;;;;;32.72;21.27;;;4.60;99.90;;;;;;4968846;29;20214;-87
2022/01/11 06:50:38;;;;;;;35.28;20.17;;;4.80;99.90;;;;;;4978439;28;20190;-88
2022/01/11 06:53:09;;;;;;;39.15;21.15;;;4.30;99.90;;;;;;4970214;29;20212;-87
2022/01/11 06:55:37;;;;;;;36.70;23.02;;;4.70;99.90;;;;;;4975209;29;20214;-88
2022/01/11 06:58:05;;;;;;;38.20;21.42;;;4.70;99.90;;;;;;4965775;29;20317;-88
2022/01/11 07:00:32;;;;;;;29.75;20.40;;;4.90;99.90;;;;;;4964297;29;20265;-87
2022/01/11 07:03:02;;;;;;;35.13;20.02;;;4.80;99.90;;;;;;4970772;29;20278;-89
2022/01/11 07:05:29;;;;;;;34.22;21.80;;;4.90;99.90;;;;;;4966870;29;20262;-85
2022/01/11 07:07:56;;;;;;;33.35;21.02;;;5.00;99.90;;;;;;4964701;29;20207;-86
2022/01/11 07:10:25;;;;;;;36.67;21.52;;;4.80;99.90;;;;;;4964725;29;20207;-88
2022/01/11 07:12:55;;;;;;;37.25;22.98;;;4.40;99.90;;;;;;4962348;29;20743;-87
2022/01/11 07:15:28;;;;;;;38.25;22.55;;;4.70;99.90;;;;;;4962280;29;20250;-87
2022/01/11 07:18:25;;;;;;;38.25;22.13;;;4.70;99.90;;;;;;4965421;28;20212;-88
2022/01/11 07:20:52;;;;;;;35.80;23.00;;;4.50;99.90;;;;;;4965323;29;20207;-88
2022/01/11 07:29:44;;;;;;;37.85;23.83;;;4.70;99.90;;;;;;4962520;29;20256;-88
2022/01/11 07:38:41;;;;;;;33.17;20.85;;;4.70;99.90;;;;;;4909659;29;20304;-88
2022/01/11 07:44:24;;;;;;;32.78;20.42;;;4.80;99.90;;;;;;4891499;29;20221;-89
2022/01/11 07:46:56;;;;;;;40.17;20.27;;;4.50;99.90;;;;;;4963489;29;20238;-89
2022/01/11 07:53:30;;;;;;;;;;;;;;;;;;;;;
2022/01/11 07:56:08;;;;;;;33.85;20.77;;;4.80;99.90;;;;;;4967722;29;20220;-88
2022/01/11 07:58:44;;;;;;;39.50;20.75;;;4.50;99.90;;;;;;4967446;29;20235;-88
2022/01/11 08:01:18;;;;;;;36.53;20.42;;;4.70;99.90;;;;;;4972060;28;20213;-88
2022/01/11 08:03:56;;;;;;;38.65;20.45;;;4.80;99.90;;;;;;4968828;29;20266;-87
2022/01/11 08:06:42;;;;;;;35.15;21.20;;;5.00;99.90;;;;;;4970238;29;20247;-89
2022/01/11 08:09:23;;;;;;;31.90;21.85;;;4.80;99.90;;;;;;4956934;29;20234;-89
2022/01/11 08:12:28;;;;;;;34.40;20.10;;;4.90;99.90;;;;;;4979203;28;20176;-89
2022/01/11 08:15:12;;;;;;;34.03;19.58;;;5.00;99.90;;;;;;4974276;28;20246;-88
2022/01/11 08:32:30;;;;;;;31.38;17.70;;;4.90;99.90;;;;;;3196151;26;20225;-89
2022/01/11 08:34:57;;;;;;;30.50;17.55;;;5.00;99.90;;;;;;4964878;28;20254;-87
2022/01/11 08:37:27;;;;;;;28.38;19.92;;;4.80;99.90;;;;;;4961900;28;20204;-89
2022/01/11 08:46:54;;;;;;;;;;;;;;;;;;;;;
2022/01/11 08:49:39;;;;;;;34.55;20.88;;;4.80;99.90;;;;;;4866022;29;20610;-87
2022/01/11 08:52:52;;;;;;;;;;;;;;;;;;;;;
2022/01/11 09:29:31;;;;;;;;;;;;;;;;;;;;;
2022/01/11 09:35:21;;;;;;;27.60;16.83;;;5.40;99.90;;;;;;4983603;28;20218;-87
2022/01/11 09:55:25;;;;;;;32.00;16.48;;;5.40;99.90;;;;;;4867193;29;20273;-87
2022/01/11 10:12:26;;;;;;;24.73;14.10;;;5.40;99.90;;;;;;4844530;29;20203;-87
2022/01/11 10:20:37;;;;;;;27.70;16.77;;;5.40;99.90;;;;;;1404802;26;20228;-86
2022/01/11 10:26:20;;;;;;;27.92;16.90;;;5.50;99.90;;;;;;5099886;23;20242;-86
2022/01/11 10:43:26;;;;;;;21.95;14.30;;;5.60;99.90;;;;;;4821955;29;20216;-86
2022/01/11 10:56:29;;;;;;;21.08;15.02;;;5.50;99.90;;;;;;4994939;23;20298;-87
2022/01/11 11:05:36;;;;;;;25.15;16.42;;;6.00;99.90;;;;;;5067548;23;20244;-88
2022/01/11 11:21:54;;;;;;;22.17;11.85;;;6.30;99.90;;;;;;4931678;29;20261;-87
2022/01/11 11:24:48;;;;;;;21.17;12.50;;;6.40;99.90;;;;;;4930819;29;20269;-88
2022/01/11 11:27:30;;;;;;;19.98;12.60;;;6.60;99.90;;;;;;4922623;29;20241;-86
2022/01/11 11:29:58;;;;;;;20.65;15.40;;;6.50;99.90;;;;;;4925249;29;20218;-87
2022/01/11 11:35:54;;;;;;;21.13;11.93;;;6.30;99.90;;;;;;4895494;29;20227;-88
2022/01/11 11:39:00;;;;;;;23.10;11.93;;;6.50;99.90;;;;;;4868957;29;20278;-88
2022/01/11 11:41:30;;;;;;;21.38;12.55;;;6.50;99.90;;;;;;4945499;28;20307;-90
2022/01/11 11:44:10;;;;;;;20.00;11.57;;;6.50;99.90;;;;;;4985255;28;20222;-88
2022/01/11 11:46:51;;;;;;;15.05;9.23;;;5.90;99.90;;;;;;4982950;28;20714;-89
2022/01/11 11:49:42;;;;;;;21.80;13.02;;;6.40;99.90;;;;;;4995480;28;20262;-87
2022/01/11 11:52:18;;;;;;;22.20;13.05;;;6.20;99.90;;;;;;4982668;28;20661;-88
2022/01/11 11:54:50;;;;;;;20.27;11.55;;;5.90;99.90;;;;;;4984263;28;20261;-89
2022/01/11 11:57:18;;;;;;;28.73;12.27;;;6.50;99.90;;;;;;4988992;28;20211;-88
2022/01/11 12:08:48;;;;;;;19.17;10.50;;;6.40;99.90;;;;;;5476076;23;20607;-87
2022/01/11 12:12:19;;;;;;;20.25;10.15;;;6.60;99.90;;;;;;4981889;28;20303;-88
2022/01/11 12:25:29;;;;;;;4.38;2.05;;;6.60;99.90;;;;;;5019709;23;20325;-87
2022/01/11 12:28:00;;;;;;;7.63;3.83;;;6.60;99.90;;;;;;4981994;28;20231;-87
2022/01/11 12:30:28;;;;;;;11.65;6.00;;;6.60;99.90;;;;;;4983686;28;20216;-88
2022/01/11 12:33:13;;;;;;;9.80;5.65;;;6.40;99.90;;;;;;4983768;28;20258;-87
2022/01/11 12:35:59;;;;;;;10.85;5.50;;;6.00;99.90;;;;;;4985705;28;20243;-88
2022/01/11 12:38:33;;;;;;;6.43;3.80;;;6.60;99.90;;;;;;4982870;28;20206;-87
2022/01/11 12:41:28;;;;;;;7.20;3.70;;;6.70;99.90;;;;;;4983645;28;20214;-87
2022/01/11 12:44:18;;;;;;;6.50;3.85;;;6.60;99.90;;;;;;4986889;28;20278;-87
2022/01/11 12:46:54;;;;;;;6.03;3.10;;;6.80;99.90;;;;;;4983185;28;20231;-89
2022/01/11 12:49:21;;;;;;;8.27;4.07;;;6.80;99.90;;;;;;4986550;28;20218;-88
2022/01/11 12:51:52;;;;;;;8.98;4.55;;;6.80;99.90;;;;;;4985754;28;20219;-88
2022/01/11 12:54:25;;;;;;;7.10;4.55;;;6.10;99.90;;;;;;4984475;28;20211;-90
2022/01/11 12:56:55;;;;;;;9.18;4.95;;;6.50;99.90;;;;;;4984781;28;20232;-89
2022/01/11 12:59:26;;;;;;;10.98;3.85;;;6.60;99.90;;;;;;4983491;28;20242;-89
2022/01/11 13:02:02;;;;;;;6.25;3.47;;;6.20;99.90;;;;;;4984059;28;20238;-89
2022/01/11 13:04:41;;;;;;;5.68;3.63;;;6.60;99.90;;;;;;4984106;28;20245;-89
2022/01/11 13:07:30;;;;;;;4.30;2.95;;;6.40;99.90;;;;;;4985630;28;20255;-88
2022/01/11 13:10:15;;;;;;;7.78;3.40;;;6.50;99.90;;;;;;4982924;28;20566;-87
2022/01/11 13:12:48;;;;;;;6.15;4.00;;;6.50;99.90;;;;;;4986653;28;20202;-88
2022/01/11 13:15:20;;;;;;;7.28;4.25;;;6.20;99.90;;;;;;4984728;28;20305;-88
2022/01/11 13:17:49;;;;;;;10.63;5.05;;;6.60;99.90;;;;;;4985655;28;20191;-88
2022/01/11 13:20:17;;;;;;;8.02;4.28;;;6.70;99.90;;;;;;4985995;28;20241;-88
2022/01/11 13:25:53;;;;;;;6.38;3.03;;;6.70;99.90;;;;;;4986824;28;20286;-88
2022/01/11 13:28:32;;;;;;;9.45;3.75;;;6.90;99.90;;;;;;4988655;28;20237;-88
2022/01/11 13:31:02;;;;;;;6.18;4.35;;;6.80;99.90;;;;;;4987038;28;20222;-89
2022/01/11 13:33:30;;;;;;;5.30;3.58;;;6.30;99.90;;;;;;4983411;28;20216;-88
2022/01/11 13:36:00;;;;;;;8.25;4.78;;;6.40;99.90;;;;;;4982947;28;20253;-89
2022/01/11 13:38:33;;;;;;;8.40;4.57;;;6.40;99.90;;;;;;4985156;28;20675;-87
2022/01/11 13:41:03;;;;;;;6.32;4.03;;;6.70;99.90;;;;;;4984538;28;20191;-88
2022/01/11 13:43:37;;;;;;;11.43;6.28;;;6.50;99.90;;;;;;4986601;28;20199;-88
2022/01/11 13:46:21;;;;;;;8.45;5.22;;;6.40;99.90;;;;;;4987838;28;20256;-88
2022/01/11 13:48:50;;;;;;;9.93;5.50;;;6.20;99.90;;;;;;4984097;28;20227;-88
2022/01/11 13:51:24;;;;;;;11.57;5.60;;;6.20;99.90;;;;;;4984897;28;20234;-89
2022/01/11 13:54:01;;;;;;;6.78;4.60;;;6.20;99.90;;;;;;4983106;28;20205;-88
2022/01/11 13:56:32;;;;;;;8.82;3.40;;;6.20;99.90;;;;;;4989365;28;20239;-90
2022/01/11 13:59:02;;;;;;;11.57;4.65;;;6.40;99.90;;;;;;4986976;28;20627;-89
2022/01/11 14:01:31;;;;;;;10.30;5.43;;;6.00;99.90;;;;;;4986249;28;20210;-88
2022/01/11 14:04:07;;;;;;;10.63;4.20;;;6.40;99.90;;;;;;4983860;28;20286;-87
2022/01/11 14:06:41;;;;;;;7.15;4.05;;;6.00;99.90;;;;;;4983551;28;20257;-88
2022/01/11 14:09:16;;;;;;;7.75;4.20;;;6.50;99.90;;;;;;4984231;28;20647;-89
2022/01/11 14:12:02;;;;;;;6.97;3.40;;;6.10;99.90;;;;;;4987725;28;20214;-88
2022/01/11 14:14:34;;;;;;;8.70;3.85;;;6.30;99.90;;;;;;4988248;28;20210;-90
2022/01/11 14:17:18;;;;;;;6.82;4.28;;;6.10;99.90;;;;;;4983937;28;20294;-88
2022/01/11 14:19:52;;;;;;;8.60;4.50;;;6.20;99.90;;;;;;4984031;28;20214;-88
2022/01/11 14:22:35;;;;;;;7.43;4.28;;;6.20;99.90;;;;;;4984483;28;20257;-88
2022/01/11 14:25:02;;;;;;;7.80;4.43;;;6.20;99.90;;;;;;4984511;28;20271;-88
2022/01/11 14:27:32;;;;;;;7.68;4.75;;;6.10;99.90;;;;;;4984766;28;20695;-86
2022/01/11 14:30:06;;;;;;;6.25;4.03;;;6.10;99.90;;;;;;4989823;28;20227;-87
2022/01/11 14:32:34;;;;;;;6.90;4.22;;;6.00;99.90;;;;;;4991545;28;20236;-88
2022/01/11 14:35:05;;;;;;;7.72;4.15;;;5.70;99.90;;;;;;4983945;28;20286;-88
2022/01/11 14:37:33;;;;;;;10.20;4.53;;;6.00;99.90;;;;;;4985012;28;20224;-88
2022/01/11 14:40:31;;;;;;;8.75;4.65;;;6.10;99.90;;;;;;4992957;28;20676;-87
2022/01/11 14:43:24;;;;;;;7.25;4.20;;;6.10;99.90;;;;;;4985420;28;20210;-88
2022/01/11 14:46:04;;;;;;;7.30;4.43;;;5.90;99.90;;;;;;4985316;28;20236;-88
2022/01/11 14:52:32;;;;;;;13.88;6.32;;;6.00;99.90;;;;;;4976387;28;20211;-89
2022/01/11 14:54:59;;;;;;;8.80;5.10;;;6.30;99.90;;;;;;4926857;28;20229;-88
2022/01/11 14:57:31;;;;;;;7.75;4.70;;;6.30;99.90;;;;;;4996072;28;20211;-89
2022/01/11 14:59:58;;;;;;;5.55;3.30;;;6.40;99.90;;;;;;4993891;28;20214;-89
2022/01/11 15:02:38;;;;;;;9.13;4.90;;;6.30;99.90;;;;;;4998002;28;20204;-88
2022/01/11 15:05:08;;;;;;;9.18;4.93;;;6.20;99.90;;;;;;4987990;28;20291;-88
2022/01/11 15:07:38;;;;;;;9.40;7.03;;;6.20;99.90;;;;;;4986893;28;20223;-89
2022/01/11 15:10:09;;;;;;;7.25;5.13;;;6.40;99.90;;;;;;4986931;28;20192;-89
2022/01/11 15:12:42;;;;;;;11.02;6.93;;;6.30;99.90;;;;;;4986906;28;20199;-90
2022/01/11 15:15:18;;;;;;;12.95;7.60;;;6.10;99.90;;;;;;4984711;28;20199;-89
2022/01/11 15:17:47;;;;;;;37.60;20.80;;;6.10;99.90;;;;;;4990486;28;20202;-89
2022/01/11 15:20:15;;;;;;;12.45;7.88;;;5.90;99.90;;;;;;4986299;28;20207;-88
2022/01/11 15:22:43;;;;;;;10.13;5.95;;;6.00;99.90;;;;;;4985244;28;20208;-89
2022/01/11 15:25:11;;;;;;;9.10;5.80;;;6.00;99.90;;;;;;4994480;28;20200;-89
2022/01/11 15:27:46;;;;;;;7.00;4.40;;;5.80;99.90;;;;;;4998958;28;20222;-89
2022/01/11 15:30:15;;;;;;;8.27;5.32;;;5.90;99.90;;;;;;4998755;28;20218;-89
2022/01/11 15:32:44;;;;;;;8.63;5.35;;;5.80;99.90;;;;;;4998234;28;20242;-90
2022/01/11 15:35:13;;;;;;;8.77;5.82;;;6.00;99.90;;;;;;4995907;28;20214;-89
2022/01/11 15:37:42;;;;;;;9.57;6.00;;;6.00;99.90;;;;;;4996112;28;20202;-88
2022/01/11 15:40:31;;;;;;;7.13;5.00;;;5.70;99.90;;;;;;4997872;28;20202;-89
2022/01/11 15:43:06;;;;;;;6.80;4.78;;;5.80;99.90;;;;;;4994895;28;20208;-89
2022/01/11 15:45:33;;;;;;;9.63;5.22;;;5.80;99.90;;;;;;4991546;28;20241;-89
2022/01/11 15:48:07;;;;;;;7.82;4.60;;;5.60;99.90;;;;;;4986982;28;20230;-89
2022/01/11 15:50:38;;;;;;;7.95;5.55;;;6.00;99.90;;;;;;4987693;28;20587;-88
2022/01/11 15:53:05;;;;;;;7.40;4.80;;;5.90;99.90;;;;;;4985644;28;20222;-88
2022/01/11 15:55:33;;;;;;;6.63;4.85;;;5.60;99.90;;;;;;4986857;28;20595;-89
2022/01/11 15:58:00;;;;;;;7.97;4.80;;;5.90;99.90;;;;;;4990500;28;20203;-90
2022/01/11 16:00:27;;;;;;;8.60;5.72;;;5.90;99.90;;;;;;4984070;28;20271;-89
2022/01/11 16:02:54;;;;;;;7.15;4.82;;;6.00;99.90;;;;;;4984806;28;20203;-89
2022/01/11 16:05:22;;;;;;;12.90;6.70;;;5.90;99.90;;;;;;4984101;28;20223;-89
2022/01/11 16:07:51;;;;;;;8.05;5.22;;;5.70;99.90;;;;;;4986092;28;20237;-89
2022/01/11 16:10:21;;;;;;;8.15;5.13;;;6.10;99.90;;;;;;4988372;28;20223;-90
2022/01/11 16:12:51;;;;;;;8.20;5.53;;;6.00;99.90;;;;;;4987046;28;20229;-91
2022/01/11 16:15:21;;;;;;;9.27;6.25;;;6.00;99.90;;;;;;4987206;28;20273;-90
2022/01/11 16:17:48;;;;;;;14.73;6.15;;;5.90;99.90;;;;;;4985902;28;20596;-90
2022/01/11 16:20:15;;;;;;;7.47;5.03;;;5.60;99.90;;;;;;4986786;28;20202;-90
2022/01/11 16:22:43;;;;;;;9.13;5.53;;;5.80;99.90;;;;;;4985949;28;20212;-91
2022/01/11 16:25:12;;;;;;;11.10;5.70;;;5.90;99.90;;;;;;4988268;28;20214;-89
2022/01/11 16:27:40;;;;;;;10.15;6.65;;;5.90;99.90;;;;;;4985184;28;20226;-90
2022/01/11 16:30:21;;;;;;;15.38;6.72;;;5.50;99.90;;;;;;4991157;28;20199;-88
2022/01/11 16:32:49;;;;;;;9.05;5.60;;;5.90;99.90;;;;;;4987490;28;20321;-91
2022/01/11 16:35:16;;;;;;;8.25;5.65;;;5.70;99.90;;;;;;4990117;28;20232;-91
2022/01/11 16:37:43;;;;;;;10.27;6.45;;;5.80;99.90;;;;;;4991849;28;20230;-89
2022/01/11 16:42:37;;;;;;;13.05;6.45;;;5.80;99.90;;;;;;4985833;28;20207;-90
2022/01/11 16:42:59;;;;;;;10.95;6.90;;;5.90;99.90;;;;;;4985287;28;20195;-90
2022/01/11 16:45:27;;;;;;;9.90;4.80;;;5.90;99.90;;;;;;4989408;28;20297;-91
2022/01/11 16:47:54;;;;;;;10.95;7.05;;;6.40;99.90;;;;;;4985227;28;20235;-90
2022/01/11 16:50:22;;;;;;;12.50;5.90;;;5.70;99.90;;;;;;4985038;28;20214;-91